Alexander, KS (67513)

9:39 PM CDT on August 01, 2014 (GMT -0500)
Sarrada Farms 2.0 N, 2.3 E (KKSROZEL2) Elev 2073 ft | 38.22 °N, 99.36 °W | Change Station

Current weather conditions updated 9 seconds ago

Clear
Clear
72.9 °F
Feels Like 76 °F
N
4.0
Wind Variable Wind from ENE
Gusts 5.0 mph

Tomorrow is forecast to be Cooler than today.

Today
High -- | Low -- °F
--% Chance of Precip.
Yesterday
High -- | Low -- °F
Precip. -- in
6:40 AM 8:48 PM
Waxing Crescent, 31% visible
Pressure 30.09 in
Visibility 10.0 miles
Clouds Clear
Heat Index 76 °F
Dew Point 60 °F
Humidity 63%
Rainfall 0.00 in
Snow Depth Not available.
UV 0.0 out of 12
Pollen 7.30 out of 12
Air Quality Not available.
Flu Activity Not available.
METAR KHYS 020235Z 05007KT 10SM CLR 23/11 A3009 RMK AO1

More Conditions Fewer Conditions

Pressure 30.09 in
Visibility 10.0 miles
Clouds Clear
Heat Index 76 °F
Dew Point 60 °F
Humidity 63%
Rainfall 0.00 in
Snow Depth Not available.
UV 0.0 out of 12
Pollen 7.30 out of 12
Air Quality Not available.
Flu Activity Not available.
METAR KHYS 020235Z 05007KT 10SM CLR 23/11 A3009 RMK AO1

More Conditions Fewer Conditions

10-Day Weather Forecast

Almanac

Astronomy

Aug. 01, 2014 Rise Set
Actual Time 6:40 AM CDT 8:48 PM CDT
Civil Twilight 6:10 AM CDT 9:17 PM CDT
Nautical Twilight 5:34 AM CDT 9:53 PM CDT
Astronomical Twilight 4:55 AM CDT 10:32 PM CDT
Moon 12:00 PM CDT (8/1) 11:38 PM CDT (8/1)
Length of Visible Light 15h 06m
Length of Day
14h 08m
Tomorrow will be 1m 54s shorter.
Waxing Crescent, 31% of the Moon is Illuminated
Today
Waxing Crescent
Aug 3
First Quarter
Aug 10
Full
Aug 17
Last Quarter
Aug 25
New

Today's Extremes

State Highs State Lows

Community

WunderPhotos

Upload Photos

1,739,807 photos uploaded!

Nearby

Snow Depth

Station Depth Elevation
No new snow has been reported.

Earthquake Activity

City Distance Mag. Time & Date
Medford, Oklahoma 147 miles 4.3 9:46 PM CDT
2014-07-28
Cherokee, Oklahoma 135 miles 3.0 5:26 PM CDT
2014-07-28
Medford, Oklahoma 147 miles 2.9 3:39 PM CDT
2014-07-27
Caldwell, Kansas 133 miles 3.4 5:57 AM CDT
2014-07-26
Minimum magnitude displayed is 2.5.

Coastal Water Temperatures

Place Temperature
No Stations Reporting

Nearby Weather Stations

Station Location Temp. Heat Index Dew Point Humidity Wind Precip. Elev Updated Type
Sarrada Farms 2.0 N, 2.3 E, Rozel, KS 72.9 °F 76 °F 60 °F 63% ENE  at  4.0 mph 0.00 in / hr 2073 ft 9:39 PM CDT Rapid Fire

Show More Stations Show Fewer Stations